sensor_id;sensor_type;location;lat;lon;timestamp;temperature;humidity
45137;DHT22;30894;51.740;19.498;2023-06-22T00:00:53;18.20;99.40
45137;DHT22;30894;51.740;19.498;2023-06-22T00:03:31;18.20;99.60
45137;DHT22;30894;51.740;19.498;2023-06-22T00:05:57;18.20;99.80
45137;DHT22;30894;51.740;19.498;2023-06-22T00:08:23;18.20;99.90
45137;DHT22;30894;51.740;19.498;2023-06-22T00:10:49;18.20;99.90
45137;DHT22;30894;51.740;19.498;2023-06-22T00:13:16;18.30;99.90
45137;DHT22;30894;51.740;19.498;2023-06-22T00:15:43;18.30;99.90
45137;DHT22;30894;51.740;19.498;2023-06-22T00:18:10;18.30;99.90
45137;DHT22;30894;51.740;19.498;2023-06-22T00:20:37;18.30;99.90
45137;DHT22;30894;51.740;19.498;2023-06-22T00:23:04;18.30;99.90
45137;DHT22;30894;51.740;19.498;2023-06-22T00:25:39;18.30;99.90
45137;DHT22;30894;51.740;19.498;2023-06-22T00:28:06;18.20;99.90
45137;DHT22;30894;51.740;19.498;2023-06-22T00:30:33;18.20;99.90
45137;DHT22;30894;51.740;19.498;2023-06-22T00:33:00;18.30;99.90
45137;DHT22;30894;51.740;19.498;2023-06-22T00:35:27;18.20;99.90
45137;DHT22;30894;51.740;19.498;2023-06-22T00:37:59;18.20;99.90
45137;DHT22;30894;51.740;19.498;2023-06-22T00:40:33;18.30;99.90
45137;DHT22;30894;51.740;19.498;2023-06-22T00:43:00;18.30;99.90
45137;DHT22;30894;51.740;19.498;2023-06-22T00:45:26;18.30;99.90
45137;DHT22;30894;51.740;19.498;2023-06-22T00:47:53;18.30;99.90
45137;DHT22;30894;51.740;19.498;2023-06-22T00:50:23;18.30;99.90
45137;DHT22;30894;51.740;19.498;2023-06-22T00:52:53;18.30;99.90
45137;DHT22;30894;51.740;19.498;2023-06-22T00:55:24;18.30;99.90
45137;DHT22;30894;51.740;19.498;2023-06-22T00:57:52;18.30;99.90
45137;DHT22;30894;51.740;19.498;2023-06-22T01:00:25;18.30;99.90
45137;DHT22;30894;51.740;19.498;2023-06-22T01:02:52;18.30;99.90
45137;DHT22;30894;51.740;19.498;2023-06-22T01:05:20;18.20;99.90
45137;DHT22;30894;51.740;19.498;2023-06-22T01:16:33;18.20;99.90
45137;DHT22;30894;51.740;19.498;2023-06-22T01:19:18;18.10;99.90
45137;DHT22;30894;51.740;19.498;2023-06-22T01:21:53;18.20;99.90
45137;DHT22;30894;51.740;19.498;2023-06-22T01:24:32;18.20;99.90
45137;DHT22;30894;51.740;19.498;2023-06-22T01:27:36;18.20;99.90
45137;DHT22;30894;51.740;19.498;2023-06-22T01:30:28;18.20;99.90
45137;DHT22;30894;51.740;19.498;2023-06-22T01:32:57;18.20;99.90
45137;DHT22;30894;51.740;19.498;2023-06-22T01:35:24;18.20;99.90
45137;DHT22;30894;51.740;19.498;2023-06-22T01:37:51;18.20;99.90
45137;DHT22;30894;51.740;19.498;2023-06-22T01:40:18;18.10;99.90
45137;DHT22;30894;51.740;19.498;2023-06-22T01:42:45;18.10;99.90
45137;DHT22;30894;51.740;19.498;2023-06-22T01:45:12;18.10;99.90
45137;DHT22;30894;51.740;19.498;2023-06-22T01:47:39;18.00;99.90
45137;DHT22;30894;51.740;19.498;2023-06-22T01:50:06;18.10;99.90
45137;DHT22;30894;51.740;19.498;2023-06-22T01:52:32;18.10;99.90
45137;DHT22;30894;51.740;19.498;2023-06-22T01:55:00;18.10;99.90
45137;DHT22;30894;51.740;19.498;2023-06-22T01:57:27;18.00;99.90
45137;DHT22;30894;51.740;19.498;2023-06-22T02:00:00;18.00;99.90
45137;DHT22;30894;51.740;19.498;2023-06-22T02:02:33;17.90;99.90
45137;DHT22;30894;51.740;19.498;2023-06-22T02:05:06;17.90;99.90
45137;DHT22;30894;51.740;19.498;2023-06-22T02:07:44;17.80;99.90
45137;DHT22;30894;51.740;19.498;2023-06-22T02:10:15;17.70;99.90
45137;DHT22;30894;51.740;19.498;2023-06-22T02:12:44;17.60;99.90
45137;DHT22;30894;51.740;19.498;2023-06-22T02:15:11;17.60;99.90
45137;DHT22;30894;51.740;19.498;2023-06-22T02:17:38;17.50;99.90
45137;DHT22;30894;51.740;19.498;2023-06-22T02:20:05;17.50;99.90
45137;DHT22;30894;51.740;19.498;2023-06-22T02:22:33;17.40;99.90
45137;DHT22;30894;51.740;19.498;2023-06-22T02:24:59;17.40;99.90
45137;DHT22;30894;51.740;19.498;2023-06-22T02:27:25;17.40;99.90
45137;DHT22;30894;51.740;19.498;2023-06-22T02:29:51;17.30;99.90
45137;DHT22;30894;51.740;19.498;2023-06-22T02:32:17;17.30;99.90
45137;DHT22;30894;51.740;19.498;2023-06-22T02:34:43;17.20;99.90
45137;DHT22;30894;51.740;19.498;2023-06-22T02:37:13;17.30;99.90
45137;DHT22;30894;51.740;19.498;2023-06-22T02:39:41;17.20;99.90
45137;DHT22;30894;51.740;19.498;2023-06-22T02:42:07;17.20;99.90
45137;DHT22;30894;51.740;19.498;2023-06-22T02:44:33;17.20;99.90
45137;DHT22;30894;51.740;19.498;2023-06-22T02:46:59;17.20;99.90
45137;DHT22;30894;51.740;19.498;2023-06-22T02:49:25;17.20;99.90
45137;DHT22;30894;51.740;19.498;2023-06-22T02:51:51;17.20;99.90
45137;DHT22;30894;51.740;19.498;2023-06-22T02:54:17;17.20;99.90
45137;DHT22;30894;51.740;19.498;2023-06-22T02:56:43;17.10;99.90
45137;DHT22;30894;51.740;19.498;2023-06-22T02:59:10;17.10;99.90
45137;DHT22;30894;51.740;19.498;2023-06-22T03:01:37;17.10;99.90
45137;DHT22;30894;51.740;19.498;2023-06-22T03:04:07;17.10;99.90
45137;DHT22;30894;51.740;19.498;2023-06-22T03:06:33;17.00;99.90
45137;DHT22;30894;51.740;19.498;2023-06-22T03:09:04;17.00;99.90
45137;DHT22;30894;51.740;19.498;2023-06-22T03:11:31;17.00;99.90
45137;DHT22;30894;51.740;19.498;2023-06-22T03:13:59;16.90;99.90
45137;DHT22;30894;51.740;19.498;2023-06-22T03:16:25;16.90;99.90
45137;DHT22;30894;51.740;19.498;2023-06-22T03:18:51;16.90;99.90
45137;DHT22;30894;51.740;19.498;2023-06-22T03:21:19;16.90;99.90
45137;DHT22;30894;51.740;19.498;2023-06-22T03:23:47;16.90;99.90
45137;DHT22;30894;51.740;19.498;2023-06-22T03:26:17;16.90;99.90
45137;DHT22;30894;51.740;19.498;2023-06-22T03:28:43;17.00;99.90
45137;DHT22;30894;51.740;19.498;2023-06-22T03:31:09;17.10;99.90
45137;DHT22;30894;51.740;19.498;2023-06-22T03:33:36;17.10;99.90
45137;DHT22;30894;51.740;19.498;2023-06-22T03:36:02;17.20;99.90
45137;DHT22;30894;51.740;19.498;2023-06-22T03:38:29;17.30;99.90
45137;DHT22;30894;51.740;19.498;2023-06-22T03:40:55;17.30;99.90
45137;DHT22;30894;51.740;19.498;2023-06-22T03:43:21;17.30;99.90
45137;DHT22;30894;51.740;19.498;2023-06-22T03:45:47;17.30;99.90
45137;DHT22;30894;51.740;19.498;2023-06-22T03:48:13;17.30;99.90
45137;DHT22;30894;51.740;19.498;2023-06-22T03:50:39;17.30;99.90
45137;DHT22;30894;51.740;19.498;2023-06-22T03:53:05;17.30;99.90
45137;DHT22;30894;51.740;19.498;2023-06-22T03:55:33;17.30;99.90
45137;DHT22;30894;51.740;19.498;2023-06-22T03:57:59;17.40;99.90
45137;DHT22;30894;51.740;19.498;2023-06-22T04:00:32;17.40;99.90
45137;DHT22;30894;51.740;19.498;2023-06-22T04:02:58;17.40;99.90
45137;DHT22;30894;51.740;19.498;2023-06-22T04:05:24;17.50;99.90
45137;DHT22;30894;51.740;19.498;2023-06-22T04:07:50;17.50;99.90
45137;DHT22;30894;51.740;19.498;2023-06-22T04:10:16;17.60;99.90
45137;DHT22;30894;51.740;19.498;2023-06-22T04:12:42;17.60;99.90
45137;DHT22;30894;51.740;19.498;2023-06-22T04:15:09;17.70;99.90
45137;DHT22;30894;51.740;19.498;2023-06-22T04:17:36;17.70;99.90
45137;DHT22;30894;51.740;19.498;2023-06-22T04:20:02;17.80;99.90
45137;DHT22;30894;51.740;19.498;2023-06-22T04:22:29;18.00;99.90
45137;DHT22;30894;51.740;19.498;2023-06-22T04:24:55;18.20;99.90
45137;DHT22;30894;51.740;19.498;2023-06-22T04:27:22;18.50;99.90
45137;DHT22;30894;51.740;19.498;2023-06-22T04:29:48;18.70;99.90
45137;DHT22;30894;51.740;19.498;2023-06-22T04:32:15;19.00;99.90
45137;DHT22;30894;51.740;19.498;2023-06-22T04:34:42;19.20;99.90
45137;DHT22;30894;51.740;19.498;2023-06-22T04:37:09;19.60;99.90
45137;DHT22;30894;51.740;19.498;2023-06-22T04:39:42;19.90;99.90
45137;DHT22;30894;51.740;19.498;2023-06-22T04:42:08;20.30;99.90
45137;DHT22;30894;51.740;19.498;2023-06-22T04:44:34;20.60;99.90
45137;DHT22;30894;51.740;19.498;2023-06-22T04:47:01;20.90;99.90
45137;DHT22;30894;51.740;19.498;2023-06-22T04:49:30;21.20;99.80
45137;DHT22;30894;51.740;19.498;2023-06-22T04:52:02;21.60;98.90
45137;DHT22;30894;51.740;19.498;2023-06-22T04:54:29;22.10;97.70
45137;DHT22;30894;51.740;19.498;2023-06-22T04:57:08;22.50;96.50
45137;DHT22;30894;51.740;19.498;2023-06-22T04:59:37;22.90;95.40
45137;DHT22;30894;51.740;19.498;2023-06-22T05:02:08;23.30;94.20
45137;DHT22;30894;51.740;19.498;2023-06-22T05:04:34;23.60;93.20
45137;DHT22;30894;51.740;19.498;2023-06-22T05:07:09;24.00;92.40
45137;DHT22;30894;51.740;19.498;2023-06-22T05:09:35;24.40;91.60
45137;DHT22;30894;51.740;19.498;2023-06-22T05:12:02;24.70;90.90
45137;DHT22;30894;51.740;19.498;2023-06-22T05:14:30;25.00;90.30
45137;DHT22;30894;51.740;19.498;2023-06-22T05:16:56;25.30;89.20
45137;DHT22;30894;51.740;19.498;2023-06-22T05:19:25;25.70;87.80
45137;DHT22;30894;51.740;19.498;2023-06-22T05:21:57;26.00;86.60
45137;DHT22;30894;51.740;19.498;2023-06-22T05:24:23;26.30;85.60
45137;DHT22;30894;51.740;19.498;2023-06-22T05:26:49;26.50;84.90
45137;DHT22;30894;51.740;19.498;2023-06-22T05:29:15;26.70;84.10
45137;DHT22;30894;51.740;19.498;2023-06-22T05:31:41;27.00;83.30
45137;DHT22;30894;51.740;19.498;2023-06-22T05:34:07;27.20;82.60
45137;DHT22;30894;51.740;19.498;2023-06-22T05:36:33;27.50;81.70
45137;DHT22;30894;51.740;19.498;2023-06-22T05:38:59;27.80;80.90
45137;DHT22;30894;51.740;19.498;2023-06-22T05:41:40;28.10;80.00
45137;DHT22;30894;51.740;19.498;2023-06-22T05:44:06;28.40;79.10
45137;DHT22;30894;51.740;19.498;2023-06-22T05:46:32;28.60;78.60
45137;DHT22;30894;51.740;19.498;2023-06-22T05:48:58;28.80;78.00
45137;DHT22;30894;51.740;19.498;2023-06-22T05:51:25;28.90;77.70
45137;DHT22;30894;51.740;19.498;2023-06-22T05:53:51;29.00;77.30
45137;DHT22;30894;51.740;19.498;2023-06-22T05:56:17;29.20;76.90
45137;DHT22;30894;51.740;19.498;2023-06-22T05:58:43;29.40;76.40
45137;DHT22;30894;51.740;19.498;2023-06-22T06:01:09;29.70;76.00
45137;DHT22;30894;51.740;19.498;2023-06-22T06:03:35;29.80;75.50
45137;DHT22;30894;51.740;19.498;2023-06-22T06:06:09;30.00;75.10
45137;DHT22;30894;51.740;19.498;2023-06-22T06:08:37;30.20;74.60
45137;DHT22;30894;51.740;19.498;2023-06-22T06:11:04;30.60;74.70
45137;DHT22;30894;51.740;19.498;2023-06-22T06:13:30;31.00;73.20
45137;DHT22;30894;51.740;19.498;2023-06-22T06:15:57;31.20;72.40
45137;DHT22;30894;51.740;19.498;2023-06-22T06:18:26;31.50;72.60
45137;DHT22;30894;51.740;19.498;2023-06-22T06:20:52;31.70;71.40
45137;DHT22;30894;51.740;19.498;2023-06-22T06:23:18;32.00;71.50
45137;DHT22;30894;51.740;19.498;2023-06-22T06:25:44;32.30;70.30
45137;DHT22;30894;51.740;19.498;2023-06-22T06:28:10;32.60;69.70
45137;DHT22;30894;51.740;19.498;2023-06-22T06:30:36;32.90;69.20
45137;DHT22;30894;51.740;19.498;2023-06-22T06:33:03;33.00;68.70
45137;DHT22;30894;51.740;19.498;2023-06-22T06:35:34;33.20;68.50
45137;DHT22;30894;51.740;19.498;2023-06-22T06:38:00;33.30;68.30
45137;DHT22;30894;51.740;19.498;2023-06-22T06:40:26;33.40;68.10
45137;DHT22;30894;51.740;19.498;2023-06-22T06:42:52;33.70;67.60
45137;DHT22;30894;51.740;19.498;2023-06-22T06:45:20;33.80;67.50
45137;DHT22;30894;51.740;19.498;2023-06-22T06:47:52;34.00;67.10
45137;DHT22;30894;51.740;19.498;2023-06-22T06:50:18;34.10;66.80
45137;DHT22;30894;51.740;19.498;2023-06-22T06:52:45;34.20;66.50
45137;DHT22;30894;51.740;19.498;2023-06-22T06:55:11;34.50;66.10
45137;DHT22;30894;51.740;19.498;2023-06-22T06:57:41;34.90;65.60
45137;DHT22;30894;51.740;19.498;2023-06-22T07:00:09;35.10;65.00
45137;DHT22;30894;51.740;19.498;2023-06-22T07:02:39;35.40;64.40
45137;DHT22;30894;51.740;19.498;2023-06-22T07:05:07;35.80;63.80
45137;DHT22;30894;51.740;19.498;2023-06-22T07:07:34;36.00;63.40
45137;DHT22;30894;51.740;19.498;2023-06-22T07:10:00;36.10;63.00
45137;DHT22;30894;51.740;19.498;2023-06-22T07:12:26;36.40;62.50
45137;DHT22;30894;51.740;19.498;2023-06-22T07:14:53;36.70;62.70
45137;DHT22;30894;51.740;19.498;2023-06-22T07:17:22;36.90;61.70
45137;DHT22;30894;51.740;19.498;2023-06-22T07:19:48;37.10;61.30
45137;DHT22;30894;51.740;19.498;2023-06-22T07:22:14;37.40;61.00
45137;DHT22;30894;51.740;19.498;2023-06-22T07:24:40;37.50;60.70
45137;DHT22;30894;51.740;19.498;2023-06-22T07:27:06;37.60;60.40
45137;DHT22;30894;51.740;19.498;2023-06-22T07:29:32;37.80;60.00
45137;DHT22;30894;51.740;19.498;2023-06-22T07:31:58;38.20;59.60
45137;DHT22;30894;51.740;19.498;2023-06-22T07:34:26;38.30;59.30
45137;DHT22;30894;51.740;19.498;2023-06-22T07:36:52;38.50;58.90
45137;DHT22;30894;51.740;19.498;2023-06-22T07:39:18;38.80;58.60
45137;DHT22;30894;51.740;19.498;2023-06-22T07:41:45;39.20;58.10
45137;DHT22;30894;51.740;19.498;2023-06-22T07:44:11;39.50;57.60
45137;DHT22;30894;51.740;19.498;2023-06-22T07:46:37;39.80;57.10
45137;DHT22;30894;51.740;19.498;2023-06-22T07:49:03;40.00;56.80
45137;DHT22;30894;51.740;19.498;2023-06-22T07:51:29;40.20;56.60
45137;DHT22;30894;51.740;19.498;2023-06-22T07:53:56;40.50;56.20
45137;DHT22;30894;51.740;19.498;2023-06-22T07:56:22;40.70;55.90
45137;DHT22;30894;51.740;19.498;2023-06-22T07:58:48;40.70;55.60
45137;DHT22;30894;51.740;19.498;2023-06-22T08:01:15;40.80;55.40
45137;DHT22;30894;51.740;19.498;2023-06-22T08:03:43;41.10;55.20
45137;DHT22;30894;51.740;19.498;2023-06-22T08:06:11;41.20;55.00
45137;DHT22;30894;51.740;19.498;2023-06-22T08:08:38;41.40;54.80
45137;DHT22;30894;51.740;19.498;2023-06-22T08:11:04;41.70;54.40
45137;DHT22;30894;51.740;19.498;2023-06-22T08:13:31;42.00;53.90
45137;DHT22;30894;51.740;19.498;2023-06-22T08:15:57;42.10;53.50
45137;DHT22;30894;51.740;19.498;2023-06-22T08:18:23;42.10;53.50
45137;DHT22;30894;51.740;19.498;2023-06-22T08:20:52;42.30;53.30
45137;DHT22;30894;51.740;19.498;2023-06-22T08:23:18;42.30;53.10
45137;DHT22;30894;51.740;19.498;2023-06-22T08:25:44;42.40;52.90
45137;DHT22;30894;51.740;19.498;2023-06-22T08:28:11;42.60;52.10
45137;DHT22;30894;51.740;19.498;2023-06-22T08:30:38;42.60;52.30
45137;DHT22;30894;51.740;19.498;2023-06-22T08:33:04;42.40;52.40
45137;DHT22;30894;51.740;19.498;2023-06-22T08:35:30;42.30;52.20
45137;DHT22;30894;51.740;19.498;2023-06-22T08:37:56;42.00;52.30
45137;DHT22;30894;51.740;19.498;2023-06-22T08:40:23;42.00;52.40
45137;DHT22;30894;51.740;19.498;2023-06-22T08:42:50;42.20;52.00
45137;DHT22;30894;51.740;19.498;2023-06-22T08:45:16;42.50;51.70
45137;DHT22;30894;51.740;19.498;2023-06-22T08:47:45;42.50;51.30
45137;DHT22;30894;51.740;19.498;2023-06-22T08:50:12;42.60;51.10
45137;DHT22;30894;51.740;19.498;2023-06-22T08:52:40;42.80;50.80
45137;DHT22;30894;51.740;19.498;2023-06-22T08:55:09;43.00;50.40
45137;DHT22;30894;51.740;19.498;2023-06-22T08:57:36;43.20;50.10
45137;DHT22;30894;51.740;19.498;2023-06-22T09:00:08;43.40;49.80
45137;DHT22;30894;51.740;19.498;2023-06-22T09:02:42;43.50;49.50
45137;DHT22;30894;51.740;19.498;2023-06-22T09:05:09;43.70;49.50
45137;DHT22;30894;51.740;19.498;2023-06-22T09:07:36;43.70;49.20
45137;DHT22;30894;51.740;19.498;2023-06-22T09:10:02;43.80;48.90
45137;DHT22;30894;51.740;19.498;2023-06-22T09:12:30;44.00;48.70
45137;DHT22;30894;51.740;19.498;2023-06-22T09:15:00;44.00;48.50
45137;DHT22;30894;51.740;19.498;2023-06-22T09:17:27;44.00;48.40
45137;DHT22;30894;51.740;19.498;2023-06-22T09:19:53;44.10;48.20
45137;DHT22;30894;51.740;19.498;2023-06-22T09:22:19;44.10;48.10
45137;DHT22;30894;51.740;19.498;2023-06-22T09:24:45;44.20;47.90
45137;DHT22;30894;51.740;19.498;2023-06-22T09:27:11;44.10;47.80
45137;DHT22;30894;51.740;19.498;2023-06-22T09:29:38;44.20;47.70
45137;DHT22;30894;51.740;19.498;2023-06-22T09:32:04;44.40;47.50
45137;DHT22;30894;51.740;19.498;2023-06-22T09:34:30;44.60;47.20
45137;DHT22;30894;51.740;19.498;2023-06-22T09:36:57;44.50;47.00
45137;DHT22;30894;51.740;19.498;2023-06-22T09:39:26;44.20;46.90
45137;DHT22;30894;51.740;19.498;2023-06-22T09:41:52;44.00;46.80
45137;DHT22;30894;51.740;19.498;2023-06-22T09:44:18;44.00;46.70
45137;DHT22;30894;51.740;19.498;2023-06-22T09:46:44;43.70;46.40
45137;DHT22;30894;51.740;19.498;2023-06-22T09:49:10;43.20;47.10
45137;DHT22;30894;51.740;19.498;2023-06-22T09:51:36;43.40;46.40
45137;DHT22;30894;51.740;19.498;2023-06-22T09:54:02;44.00;45.90
45137;DHT22;30894;51.740;19.498;2023-06-22T09:56:28;44.40;45.30
45137;DHT22;30894;51.740;19.498;2023-06-22T09:58:56;44.90;44.90
45137;DHT22;30894;51.740;19.498;2023-06-22T10:01:22;45.50;44.40
45137;DHT22;30894;51.740;19.498;2023-06-22T10:03:49;45.50;44.00
45137;DHT22;30894;51.740;19.498;2023-06-22T10:06:15;44.70;44.00
45137;DHT22;30894;51.740;19.498;2023-06-22T10:08:41;44.20;44.40
45137;DHT22;30894;51.740;19.498;2023-06-22T10:11:07;44.10;44.40
45137;DHT22;30894;51.740;19.498;2023-06-22T10:13:33;44.30;44.30
45137;DHT22;30894;51.740;19.498;2023-06-22T10:15:59;44.60;43.90
45137;DHT22;30894;51.740;19.498;2023-06-22T10:18:25;45.00;43.50
45137;DHT22;30894;51.740;19.498;2023-06-22T10:20:52;45.40;43.00
45137;DHT22;30894;51.740;19.498;2023-06-22T10:23:19;45.70;42.90
45137;DHT22;30894;51.740;19.498;2023-06-22T10:25:45;45.90;42.50
45137;DHT22;30894;51.740;19.498;2023-06-22T10:28:12;46.10;42.30
45137;DHT22;30894;51.740;19.498;2023-06-22T10:30:40;46.40;42.00
45137;DHT22;30894;51.740;19.498;2023-06-22T10:33:09;46.70;41.90
45137;DHT22;30894;51.740;19.498;2023-06-22T10:35:36;46.70;41.60
45137;DHT22;30894;51.740;19.498;2023-06-22T10:38:05;46.80;41.50
45137;DHT22;30894;51.740;19.498;2023-06-22T10:40:32;46.90;41.30
45137;DHT22;30894;51.740;19.498;2023-06-22T10:42:58;47.10;41.10
45137;DHT22;30894;51.740;19.498;2023-06-22T10:45:25;47.50;40.90
45137;DHT22;30894;51.740;19.498;2023-06-22T10:47:53;47.80;40.70
45137;DHT22;30894;51.740;19.498;2023-06-22T10:50:19;47.90;40.60
45137;DHT22;30894;51.740;19.498;2023-06-22T10:52:45;47.80;40.50
45137;DHT22;30894;51.740;19.498;2023-06-22T10:55:12;47.80;40.40
45137;DHT22;30894;51.740;19.498;2023-06-22T10:57:38;47.90;40.40
45137;DHT22;30894;51.740;19.498;2023-06-22T11:00:08;47.90;40.20
45137;DHT22;30894;51.740;19.498;2023-06-22T11:02:34;48.10;40.20
45137;DHT22;30894;51.740;19.498;2023-06-22T11:05:00;48.10;40.10
45137;DHT22;30894;51.740;19.498;2023-06-22T11:07:26;48.30;40.00
45137;DHT22;30894;51.740;19.498;2023-06-22T11:09:55;48.30;39.90
45137;DHT22;30894;51.740;19.498;2023-06-22T11:12:21;48.40;39.80
45137;DHT22;30894;51.740;19.498;2023-06-22T11:14:47;48.50;39.60
45137;DHT22;30894;51.740;19.498;2023-06-22T11:17:15;48.80;40.20
45137;DHT22;30894;51.740;19.498;2023-06-22T11:19:43;49.00;39.30
45137;DHT22;30894;51.740;19.498;2023-06-22T11:22:10;49.00;39.20
45137;DHT22;30894;51.740;19.498;2023-06-22T11:24:36;48.60;39.30
45137;DHT22;30894;51.740;19.498;2023-06-22T11:27:02;48.40;39.30
45137;DHT22;30894;51.740;19.498;2023-06-22T11:29:28;48.10;39.30
45137;DHT22;30894;51.740;19.498;2023-06-22T11:31:54;48.00;39.30
45137;DHT22;30894;51.740;19.498;2023-06-22T11:34:20;47.40;39.40
45137;DHT22;30894;51.740;19.498;2023-06-22T11:36:46;47.40;39.50
45137;DHT22;30894;51.740;19.498;2023-06-22T11:39:14;47.50;39.20
45137;DHT22;30894;51.740;19.498;2023-06-22T11:41:40;47.70;39.10
45137;DHT22;30894;51.740;19.498;2023-06-22T11:44:08;48.10;38.90
45137;DHT22;30894;51.740;19.498;2023-06-22T11:46:34;48.40;38.70
45137;DHT22;30894;51.740;19.498;2023-06-22T11:49:01;48.30;38.40
45137;DHT22;30894;51.740;19.498;2023-06-22T11:51:27;48.40;38.30
45137;DHT22;30894;51.740;19.498;2023-06-22T11:53:54;48.80;38.20
45137;DHT22;30894;51.740;19.498;2023-06-22T11:56:19;49.20;38.00
45137;DHT22;30894;51.740;19.498;2023-06-22T11:58:46;49.20;37.70
45137;DHT22;30894;51.740;19.498;2023-06-22T12:01:12;49.20;37.70
45137;DHT22;30894;51.740;19.498;2023-06-22T12:03:41;48.90;37.60
45137;DHT22;30894;51.740;19.498;2023-06-22T12:06:09;48.50;37.80
45137;DHT22;30894;51.740;19.498;2023-06-22T12:08:35;48.50;37.80
45137;DHT22;30894;51.740;19.498;2023-06-22T12:11:01;48.60;37.70
45137;DHT22;30894;51.740;19.498;2023-06-22T12:13:27;48.80;37.60
45137;DHT22;30894;51.740;19.498;2023-06-22T12:15:53;49.00;37.50
45137;DHT22;30894;51.740;19.498;2023-06-22T12:18:19;49.00;37.30
45137;DHT22;30894;51.740;19.498;2023-06-22T12:20:47;49.10;37.20
45137;DHT22;30894;51.740;19.498;2023-06-22T12:23:14;48.90;37.20
45137;DHT22;30894;51.740;19.498;2023-06-22T12:25:40;48.90;37.20
45137;DHT22;30894;51.740;19.498;2023-06-22T12:28:06;48.90;37.20
45137;DHT22;30894;51.740;19.498;2023-06-22T12:30:33;48.90;37.20
45137;DHT22;30894;51.740;19.498;2023-06-22T12:33:00;48.60;37.20
45137;DHT22;30894;51.740;19.498;2023-06-22T12:35:26;48.50;37.20
45137;DHT22;30894;51.740;19.498;2023-06-22T12:37:52;48.30;37.20
45137;DHT22;30894;51.740;19.498;2023-06-22T12:40:18;48.10;37.30
45137;DHT22;30894;51.740;19.498;2023-06-22T12:42:45;48.10;37.30
45137;DHT22;30894;51.740;19.498;2023-06-22T12:45:11;48.10;37.10
45137;DHT22;30894;51.740;19.498;2023-06-22T12:47:40;48.00;37.00
45137;DHT22;30894;51.740;19.498;2023-06-22T12:50:06;47.80;37.20
45137;DHT22;30894;51.740;19.498;2023-06-22T12:52:33;47.30;36.90
45137;DHT22;30894;51.740;19.498;2023-06-22T12:54:59;46.90;37.00
45137;DHT22;30894;51.740;19.498;2023-06-22T12:57:25;46.90;37.00
45137;DHT22;30894;51.740;19.498;2023-06-22T12:59:51;46.50;36.90
45137;DHT22;30894;51.740;19.498;2023-06-22T13:02:17;45.90;37.10
45137;DHT22;30894;51.740;19.498;2023-06-22T13:04:43;45.70;37.20
45137;DHT22;30894;51.740;19.498;2023-06-22T13:07:10;45.60;37.10
45137;DHT22;30894;51.740;19.498;2023-06-22T13:09:36;45.10;37.00
45137;DHT22;30894;51.740;19.498;2023-06-22T13:12:03;45.00;37.00
45137;DHT22;30894;51.740;19.498;2023-06-22T13:14:29;45.00;37.00
45137;DHT22;30894;51.740;19.498;2023-06-22T13:16:56;44.80;37.00
45137;DHT22;30894;51.740;19.498;2023-06-22T13:19:22;45.20;37.00
45137;DHT22;30894;51.740;19.498;2023-06-22T13:21:48;45.50;36.80
45137;DHT22;30894;51.740;19.498;2023-06-22T13:24:14;45.60;36.60
45137;DHT22;30894;51.740;19.498;2023-06-22T13:26:40;45.80;36.50
45137;DHT22;30894;51.740;19.498;2023-06-22T13:29:06;46.20;36.20
45137;DHT22;30894;51.740;19.498;2023-06-22T13:31:32;46.40;36.20
45137;DHT22;30894;51.740;19.498;2023-06-22T13:33:58;46.30;36.10
45137;DHT22;30894;51.740;19.498;2023-06-22T13:36:24;46.20;36.10
45137;DHT22;30894;51.740;19.498;2023-06-22T13:38:50;46.20;36.10
45137;DHT22;30894;51.740;19.498;2023-06-22T13:41:17;46.20;36.00
45137;DHT22;30894;51.740;19.498;2023-06-22T13:43:43;46.40;35.90
45137;DHT22;30894;51.740;19.498;2023-06-22T13:46:09;46.50;35.70
45137;DHT22;30894;51.740;19.498;2023-06-22T13:48:35;46.20;35.70
45137;DHT22;30894;51.740;19.498;2023-06-22T13:51:01;46.00;35.90
45137;DHT22;30894;51.740;19.498;2023-06-22T13:53:27;46.10;35.80
45137;DHT22;30894;51.740;19.498;2023-06-22T13:55:53;46.30;35.70
45137;DHT22;30894;51.740;19.498;2023-06-22T13:58:19;46.50;35.50
45137;DHT22;30894;51.740;19.498;2023-06-22T14:00:46;46.50;35.60
45137;DHT22;30894;51.740;19.498;2023-06-22T14:03:12;45.80;35.50
45137;DHT22;30894;51.740;19.498;2023-06-22T14:05:41;45.10;35.80
45137;DHT22;30894;51.740;19.498;2023-06-22T14:08:08;44.50;36.00
45137;DHT22;30894;51.740;19.498;2023-06-22T14:10:34;44.50;36.30
45137;DHT22;30894;51.740;19.498;2023-06-22T14:13:01;44.60;36.20
45137;DHT22;30894;51.740;19.498;2023-06-22T14:15:27;44.40;36.10
45137;DHT22;30894;51.740;19.498;2023-06-22T14:17:53;44.30;36.20
45137;DHT22;30894;51.740;19.498;2023-06-22T14:20:19;43.90;36.10
45137;DHT22;30894;51.740;19.498;2023-06-22T14:22:45;43.60;36.30
45137;DHT22;30894;51.740;19.498;2023-06-22T14:25:11;43.40;36.50
45137;DHT22;30894;51.740;19.498;2023-06-22T14:27:37;43.50;36.40
45137;DHT22;30894;51.740;19.498;2023-06-22T14:30:03;43.60;36.30
45137;DHT22;30894;51.740;19.498;2023-06-22T14:32:30;43.60;36.20
45137;DHT22;30894;51.740;19.498;2023-06-22T14:34:56;43.50;36.20
45137;DHT22;30894;51.740;19.498;2023-06-22T14:37:22;43.50;36.20
45137;DHT22;30894;51.740;19.498;2023-06-22T14:39:48;43.40;36.10
45137;DHT22;30894;51.740;19.498;2023-06-22T14:42:14;42.90;36.10
45137;DHT22;30894;51.740;19.498;2023-06-22T14:44:40;42.20;36.30
45137;DHT22;30894;51.740;19.498;2023-06-22T14:47:07;41.70;36.60
45137;DHT22;30894;51.740;19.498;2023-06-22T14:49:33;41.20;37.00
45137;DHT22;30894;51.740;19.498;2023-06-22T14:52:00;40.80;37.10
45137;DHT22;30894;51.740;19.498;2023-06-22T14:54:26;40.50;37.30
45137;DHT22;30894;51.740;19.498;2023-06-22T14:56:52;40.10;37.40
45137;DHT22;30894;51.740;19.498;2023-06-22T14:59:18;39.80;37.70
45137;DHT22;30894;51.740;19.498;2023-06-22T15:01:45;39.60;37.90
45137;DHT22;30894;51.740;19.498;2023-06-22T15:04:11;39.30;38.00
45137;DHT22;30894;51.740;19.498;2023-06-22T15:06:37;38.90;38.10
45137;DHT22;30894;51.740;19.498;2023-06-22T15:09:03;38.60;38.40
45137;DHT22;30894;51.740;19.498;2023-06-22T15:11:29;38.40;38.60
45137;DHT22;30894;51.740;19.498;2023-06-22T15:13:58;38.50;38.60
45137;DHT22;30894;51.740;19.498;2023-06-22T15:16:25;38.60;38.50
45137;DHT22;30894;51.740;19.498;2023-06-22T15:18:51;38.50;38.50
45137;DHT22;30894;51.740;19.498;2023-06-22T15:21:18;38.10;38.60
45137;DHT22;30894;51.740;19.498;2023-06-22T15:23:44;37.80;38.80